Forside
METAR-TAF:

METAR-TAF

Lufthavne :

Akron, Ohio, USA

Breddekreds: 41-02-15N, længdekreds: 081-27-51W, højde: 325 m

Aktuelle vejr

Denne rapport blev lavet for 40 minutter siden, kl. 17:54 UTC
Vind 18 kt fra sydvest med vindstød på up til 22 kt
Temperatur 9°C
Fugtighed 29%
Tryk 1018 hPa
Sigt: 16.1 km
Brudte skyer i en højde af 6000 ft
Overskyet i en højde af 8000 ft

METAR: KAKR 231754Z AUTO 22018G22KT 10SM BKN060 OVC080 09/M08 A3007 RMK AO2 SLP188 T00891078 10089 21006 58017

Tid: 13:34 (18:34 UTC)


TAF: fraværende

Vejrobservationer og prognoser fra mere end 4000 lufthavne (METAR og TAF).

De gule og røde prikker repræsenterer de meteorologiske stationer.

Flyt musen over at se navnet på stationen.

Så klik over at se vejr observationer og prognoser.

At skifte det kort: Klik på de grønne knapper med et sort kors for at zoome ind; på den grønne knap med en bindestreg for at zoome ud; eller på de grønne pile for tilstødende kort.


METAR-TAF: